sensor_id;sensor_type;location;lat;lon;timestamp;temperature;humidity
10889;DHT22;5497;51.388;6.780;2023-01-08T00:01:18;11.00;99.90
10889;DHT22;5497;51.388;6.780;2023-01-08T00:03:47;11.00;99.90
10889;DHT22;5497;51.388;6.780;2023-01-08T00:06:16;11.00;99.90
10889;DHT22;5497;51.388;6.780;2023-01-08T00:08:43;11.00;99.90
10889;DHT22;5497;51.388;6.780;2023-01-08T00:11:11;11.00;99.90
10889;DHT22;5497;51.388;6.780;2023-01-08T00:13:38;11.10;99.90
10889;DHT22;5497;51.388;6.780;2023-01-08T00:16:07;11.10;99.90
10889;DHT22;5497;51.388;6.780;2023-01-08T00:18:35;11.10;99.90
10889;DHT22;5497;51.388;6.780;2023-01-08T00:21:04;11.10;99.90
10889;DHT22;5497;51.388;6.780;2023-01-08T00:23:31;11.10;99.90
10889;DHT22;5497;51.388;6.780;2023-01-08T00:26:00;11.10;99.90
10889;DHT22;5497;51.388;6.780;2023-01-08T00:28:27;11.10;99.90
10889;DHT22;5497;51.388;6.780;2023-01-08T00:30:53;11.10;99.90
10889;DHT22;5497;51.388;6.780;2023-01-08T00:33:20;11.20;99.90
10889;DHT22;5497;51.388;6.780;2023-01-08T00:35:47;11.20;99.90
10889;DHT22;5497;51.388;6.780;2023-01-08T00:38:16;11.20;99.90
10889;DHT22;5497;51.388;6.780;2023-01-08T00:40:42;11.20;99.90
10889;DHT22;5497;51.388;6.780;2023-01-08T00:43:09;11.20;99.90
10889;DHT22;5497;51.388;6.780;2023-01-08T00:45:36;11.20;99.90
10889;DHT22;5497;51.388;6.780;2023-01-08T00:48:04;11.20;99.90
10889;DHT22;5497;51.388;6.780;2023-01-08T00:50:31;11.20;99.90
10889;DHT22;5497;51.388;6.780;2023-01-08T00:52:58;11.20;99.90
10889;DHT22;5497;51.388;6.780;2023-01-08T00:55:26;11.20;99.90
10889;DHT22;5497;51.388;6.780;2023-01-08T00:57:53;11.20;99.90
10889;DHT22;5497;51.388;6.780;2023-01-08T01:00:23;11.20;99.90
10889;DHT22;5497;51.388;6.780;2023-01-08T01:02:50;11.20;99.90
10889;DHT22;5497;51.388;6.780;2023-01-08T01:05:17;11.20;99.90
10889;DHT22;5497;51.388;6.780;2023-01-08T01:07:44;11.20;99.90
10889;DHT22;5497;51.388;6.780;2023-01-08T01:10:13;11.20;99.90
10889;DHT22;5497;51.388;6.780;2023-01-08T01:12:42;11.10;99.90
10889;DHT22;5497;51.388;6.780;2023-01-08T01:15:11;11.10;99.90
10889;DHT22;5497;51.388;6.780;2023-01-08T01:17:41;11.10;99.90
10889;DHT22;5497;51.388;6.780;2023-01-08T01:20:10;11.10;99.90
10889;DHT22;5497;51.388;6.780;2023-01-08T01:22:38;11.10;99.90
10889;DHT22;5497;51.388;6.780;2023-01-08T01:25:05;11.10;99.90
10889;DHT22;5497;51.388;6.780;2023-01-08T01:27:32;11.10;99.90
10889;DHT22;5497;51.388;6.780;2023-01-08T01:30:01;11.10;99.90
10889;DHT22;5497;51.388;6.780;2023-01-08T01:32:28;11.00;99.90
10889;DHT22;5497;51.388;6.780;2023-01-08T01:34:55;11.00;99.90
10889;DHT22;5497;51.388;6.780;2023-01-08T01:37:22;11.00;99.90
10889;DHT22;5497;51.388;6.780;2023-01-08T01:39:49;11.00;99.90
10889;DHT22;5497;51.388;6.780;2023-01-08T01:42:17;11.00;99.90
10889;DHT22;5497;51.388;6.780;2023-01-08T01:44:58;11.00;99.90
10889;DHT22;5497;51.388;6.780;2023-01-08T01:47:30;11.00;99.90
10889;DHT22;5497;51.388;6.780;2023-01-08T01:50:03;11.00;99.90
10889;DHT22;5497;51.388;6.780;2023-01-08T01:52:36;11.00;99.90
10889;DHT22;5497;51.388;6.780;2023-01-08T01:55:04;11.10;99.90
10889;DHT22;5497;51.388;6.780;2023-01-08T01:57:32;10.90;99.90
10889;DHT22;5497;51.388;6.780;2023-01-08T02:00:00;11.00;99.90
10889;DHT22;5497;51.388;6.780;2023-01-08T02:02:39;11.00;99.90
10889;DHT22;5497;51.388;6.780;2023-01-08T02:05:06;11.00;99.90
10889;DHT22;5497;51.388;6.780;2023-01-08T02:07:38;11.00;99.90
10889;DHT22;5497;51.388;6.780;2023-01-08T02:10:10;11.00;99.90
10889;DHT22;5497;51.388;6.780;2023-01-08T02:12:43;11.00;99.90
10889;DHT22;5497;51.388;6.780;2023-01-08T02:15:14;11.00;99.90
10889;DHT22;5497;51.388;6.780;2023-01-08T02:17:51;11.00;99.90
10889;DHT22;5497;51.388;6.780;2023-01-08T02:20:23;11.00;99.90
10889;DHT22;5497;51.388;6.780;2023-01-08T02:23:13;11.00;99.90
10889;DHT22;5497;51.388;6.780;2023-01-08T02:26:15;11.00;99.90
10889;DHT22;5497;51.388;6.780;2023-01-08T02:28:50;11.00;99.90
10889;DHT22;5497;51.388;6.780;2023-01-08T02:31:19;11.00;99.90
10889;DHT22;5497;51.388;6.780;2023-01-08T02:33:47;10.90;99.90
10889;DHT22;5497;51.388;6.780;2023-01-08T02:36:28;10.90;99.90
10889;DHT22;5497;51.388;6.780;2023-01-08T02:39:15;10.90;99.90
10889;DHT22;5497;51.388;6.780;2023-01-08T02:42:04;10.90;99.90
10889;DHT22;5497;51.388;6.780;2023-01-08T02:44:40;10.90;99.90
10889;DHT22;5497;51.388;6.780;2023-01-08T02:47:15;10.90;99.90
10889;DHT22;5497;51.388;6.780;2023-01-08T02:49:46;10.90;99.90
10889;DHT22;5497;51.388;6.780;2023-01-08T02:52:16;10.90;99.90
10889;DHT22;5497;51.388;6.780;2023-01-08T02:54:45;10.90;99.90
10889;DHT22;5497;51.388;6.780;2023-01-08T02:57:14;10.90;99.90
10889;DHT22;5497;51.388;6.780;2023-01-08T02:59:44;10.90;99.90
10889;DHT22;5497;51.388;6.780;2023-01-08T03:02:13;10.90;99.90
10889;DHT22;5497;51.388;6.780;2023-01-08T03:04:48;10.90;99.90
10889;DHT22;5497;51.388;6.780;2023-01-08T03:07:16;10.90;99.90
10889;DHT22;5497;51.388;6.780;2023-01-08T03:09:43;10.90;99.90
10889;DHT22;5497;51.388;6.780;2023-01-08T03:12:15;11.00;99.90
10889;DHT22;5497;51.388;6.780;2023-01-08T03:14:49;10.90;99.90
10889;DHT22;5497;51.388;6.780;2023-01-08T03:17:21;10.90;99.90
10889;DHT22;5497;51.388;6.780;2023-01-08T03:19:53;10.90;99.90
10889;DHT22;5497;51.388;6.780;2023-01-08T03:22:21;10.90;99.90
10889;DHT22;5497;51.388;6.780;2023-01-08T03:24:52;10.80;99.90
10889;DHT22;5497;51.388;6.780;2023-01-08T03:27:24;10.80;99.90
10889;DHT22;5497;51.388;6.780;2023-01-08T03:29:56;10.80;99.90
10889;DHT22;5497;51.388;6.780;2023-01-08T03:32:24;10.90;99.90
10889;DHT22;5497;51.388;6.780;2023-01-08T03:34:55;10.90;99.90
10889;DHT22;5497;51.388;6.780;2023-01-08T03:37:25;10.90;99.90
10889;DHT22;5497;51.388;6.780;2023-01-08T03:39:56;10.90;99.90
10889;DHT22;5497;51.388;6.780;2023-01-08T03:42:27;10.90;99.90
10889;DHT22;5497;51.388;6.780;2023-01-08T03:44:56;11.00;99.90
10889;DHT22;5497;51.388;6.780;2023-01-08T03:47:24;11.00;99.90
10889;DHT22;5497;51.388;6.780;2023-01-08T03:49:53;11.00;99.90
10889;DHT22;5497;51.388;6.780;2023-01-08T03:52:22;11.00;99.90
10889;DHT22;5497;51.388;6.780;2023-01-08T03:54:50;11.00;99.90
10889;DHT22;5497;51.388;6.780;2023-01-08T03:57:17;10.90;99.90
10889;DHT22;5497;51.388;6.780;2023-01-08T04:02:19;11.00;99.90
10889;DHT22;5497;51.388;6.780;2023-01-08T04:04:46;11.00;99.90
10889;DHT22;5497;51.388;6.780;2023-01-08T04:07:14;10.90;99.90
10889;DHT22;5497;51.388;6.780;2023-01-08T04:09:41;10.90;99.90
10889;DHT22;5497;51.388;6.780;2023-01-08T04:12:08;10.90;99.90
10889;DHT22;5497;51.388;6.780;2023-01-08T04:14:34;10.90;99.90
10889;DHT22;5497;51.388;6.780;2023-01-08T04:17:02;10.90;99.90
10889;DHT22;5497;51.388;6.780;2023-01-08T04:19:30;10.90;99.90
10889;DHT22;5497;51.388;6.780;2023-01-08T04:21:57;10.90;99.90
10889;DHT22;5497;51.388;6.780;2023-01-08T04:24:24;10.90;99.90
10889;DHT22;5497;51.388;6.780;2023-01-08T04:26:51;10.90;99.90
10889;DHT22;5497;51.388;6.780;2023-01-08T04:29:17;10.90;99.90
10889;DHT22;5497;51.388;6.780;2023-01-08T04:31:44;10.80;99.90
10889;DHT22;5497;51.388;6.780;2023-01-08T04:34:11;10.80;99.90
10889;DHT22;5497;51.388;6.780;2023-01-08T04:36:40;10.80;99.90
10889;DHT22;5497;51.388;6.780;2023-01-08T04:39:07;10.80;99.90
10889;DHT22;5497;51.388;6.780;2023-01-08T04:41:35;10.80;99.90
10889;DHT22;5497;51.388;6.780;2023-01-08T04:44:02;10.70;99.90
10889;DHT22;5497;51.388;6.780;2023-01-08T04:46:29;10.70;99.90
10889;DHT22;5497;51.388;6.780;2023-01-08T04:48:56;10.70;99.90
10889;DHT22;5497;51.388;6.780;2023-01-08T04:51:23;10.70;99.90
10889;DHT22;5497;51.388;6.780;2023-01-08T04:53:52;10.60;99.90
10889;DHT22;5497;51.388;6.780;2023-01-08T04:56:19;10.60;99.90
10889;DHT22;5497;51.388;6.780;2023-01-08T04:58:46;10.60;99.90
10889;DHT22;5497;51.388;6.780;2023-01-08T05:01:17;10.60;99.90
10889;DHT22;5497;51.388;6.780;2023-01-08T05:03:44;10.50;99.90
10889;DHT22;5497;51.388;6.780;2023-01-08T05:06:11;10.50;99.90
10889;DHT22;5497;51.388;6.780;2023-01-08T05:08:38;10.50;99.90
10889;DHT22;5497;51.388;6.780;2023-01-08T05:11:06;10.50;99.90
10889;DHT22;5497;51.388;6.780;2023-01-08T05:13:33;10.50;99.90
10889;DHT22;5497;51.388;6.780;2023-01-08T05:16:00;10.50;99.90
10889;DHT22;5497;51.388;6.780;2023-01-08T05:18:28;10.50;99.90
10889;DHT22;5497;51.388;6.780;2023-01-08T05:20:59;10.50;99.90
10889;DHT22;5497;51.388;6.780;2023-01-08T05:23:26;10.60;99.90
10889;DHT22;5497;51.388;6.780;2023-01-08T05:25:56;10.60;99.90
10889;DHT22;5497;51.388;6.780;2023-01-08T05:28:24;10.60;99.90
10889;DHT22;5497;51.388;6.780;2023-01-08T05:30:51;10.60;99.90
10889;DHT22;5497;51.388;6.780;2023-01-08T05:33:19;10.60;99.90
10889;DHT22;5497;51.388;6.780;2023-01-08T05:35:46;10.60;99.90
10889;DHT22;5497;51.388;6.780;2023-01-08T05:38:12;10.60;99.90
10889;DHT22;5497;51.388;6.780;2023-01-08T05:40:39;10.60;99.90
10889;DHT22;5497;51.388;6.780;2023-01-08T05:43:06;10.60;99.90
10889;DHT22;5497;51.388;6.780;2023-01-08T05:45:35;10.50;99.90
10889;DHT22;5497;51.388;6.780;2023-01-08T05:48:04;10.50;99.90
10889;DHT22;5497;51.388;6.780;2023-01-08T05:50:31;10.40;99.90
10889;DHT22;5497;51.388;6.780;2023-01-08T05:52:58;10.30;99.90
10889;DHT22;5497;51.388;6.780;2023-01-08T05:55:25;10.20;99.90
10889;DHT22;5497;51.388;6.780;2023-01-08T05:57:52;10.20;99.90
10889;DHT22;5497;51.388;6.780;2023-01-08T06:00:19;10.20;99.90
10889;DHT22;5497;51.388;6.780;2023-01-08T06:02:47;10.20;99.90
10889;DHT22;5497;51.388;6.780;2023-01-08T06:05:14;10.20;99.90
10889;DHT22;5497;51.388;6.780;2023-01-08T06:07:41;10.20;99.90
10889;DHT22;5497;51.388;6.780;2023-01-08T06:10:08;10.30;99.90
10889;DHT22;5497;51.388;6.780;2023-01-08T06:12:35;10.30;99.90
10889;DHT22;5497;51.388;6.780;2023-01-08T06:15:03;10.40;99.90
10889;DHT22;5497;51.388;6.780;2023-01-08T06:17:30;10.40;99.90
10889;DHT22;5497;51.388;6.780;2023-01-08T06:19:58;10.50;99.90
10889;DHT22;5497;51.388;6.780;2023-01-08T06:22:25;10.50;99.90
10889;DHT22;5497;51.388;6.780;2023-01-08T06:24:52;10.60;99.90
10889;DHT22;5497;51.388;6.780;2023-01-08T06:27:19;10.60;99.90
10889;DHT22;5497;51.388;6.780;2023-01-08T06:29:46;10.60;99.90
10889;DHT22;5497;51.388;6.780;2023-01-08T06:32:13;10.70;99.90
10889;DHT22;5497;51.388;6.780;2023-01-08T06:34:40;10.70;99.90
10889;DHT22;5497;51.388;6.780;2023-01-08T06:37:08;10.70;99.90
10889;DHT22;5497;51.388;6.780;2023-01-08T06:39:35;10.50;99.90
10889;DHT22;5497;51.388;6.780;2023-01-08T06:42:02;10.30;99.90
10889;DHT22;5497;51.388;6.780;2023-01-08T06:44:29;10.10;99.90
10889;DHT22;5497;51.388;6.780;2023-01-08T06:46:56;10.10;99.90
10889;DHT22;5497;51.388;6.780;2023-01-08T06:49:23;10.00;99.90
10889;DHT22;5497;51.388;6.780;2023-01-08T06:51:50;9.90;99.90
10889;DHT22;5497;51.388;6.780;2023-01-08T06:54:19;9.90;99.90
10889;DHT22;5497;51.388;6.780;2023-01-08T06:56:47;9.80;99.90
10889;DHT22;5497;51.388;6.780;2023-01-08T06:59:14;9.70;99.90
10889;DHT22;5497;51.388;6.780;2023-01-08T07:01:41;9.60;99.90
10889;DHT22;5497;51.388;6.780;2023-01-08T07:04:09;9.60;99.90
10889;DHT22;5497;51.388;6.780;2023-01-08T07:06:36;9.60;99.90
10889;DHT22;5497;51.388;6.780;2023-01-08T07:09:03;9.50;99.90
10889;DHT22;5497;51.388;6.780;2023-01-08T07:11:32;9.50;99.90
10889;DHT22;5497;51.388;6.780;2023-01-08T07:14:00;9.50;99.90
10889;DHT22;5497;51.388;6.780;2023-01-08T07:16:26;9.40;99.90
10889;DHT22;5497;51.388;6.780;2023-01-08T07:18:53;9.40;99.90
10889;DHT22;5497;51.388;6.780;2023-01-08T07:21:20;9.40;99.90
10889;DHT22;5497;51.388;6.780;2023-01-08T07:23:49;9.40;99.90
10889;DHT22;5497;51.388;6.780;2023-01-08T07:26:16;9.40;99.90
10889;DHT22;5497;51.388;6.780;2023-01-08T07:28:45;9.40;99.90
10889;DHT22;5497;51.388;6.780;2023-01-08T07:31:12;9.30;99.90
10889;DHT22;5497;51.388;6.780;2023-01-08T07:33:39;9.30;99.90
10889;DHT22;5497;51.388;6.780;2023-01-08T07:36:07;9.20;99.90
10889;DHT22;5497;51.388;6.780;2023-01-08T07:38:34;9.20;99.90
10889;DHT22;5497;51.388;6.780;2023-01-08T07:41:01;9.20;99.90
10889;DHT22;5497;51.388;6.780;2023-01-08T07:43:29;9.20;99.90
10889;DHT22;5497;51.388;6.780;2023-01-08T07:46:01;9.10;99.90
10889;DHT22;5497;51.388;6.780;2023-01-08T07:48:28;9.10;99.90
10889;DHT22;5497;51.388;6.780;2023-01-08T07:50:59;9.10;99.90
10889;DHT22;5497;51.388;6.780;2023-01-08T07:53:26;9.10;99.90
10889;DHT22;5497;51.388;6.780;2023-01-08T07:55:58;9.00;99.90
10889;DHT22;5497;51.388;6.780;2023-01-08T07:58:25;9.00;99.90
10889;DHT22;5497;51.388;6.780;2023-01-08T08:00:52;9.00;99.90
10889;DHT22;5497;51.388;6.780;2023-01-08T08:03:21;9.00;99.90
10889;DHT22;5497;51.388;6.780;2023-01-08T08:05:48;9.10;99.90
10889;DHT22;5497;51.388;6.780;2023-01-08T08:08:15;9.00;99.90
10889;DHT22;5497;51.388;6.780;2023-01-08T08:10:43;9.00;99.90
10889;DHT22;5497;51.388;6.780;2023-01-08T08:13:11;9.00;99.90
10889;DHT22;5497;51.388;6.780;2023-01-08T08:15:38;8.90;99.90
10889;DHT22;5497;51.388;6.780;2023-01-08T08:18:05;8.80;99.90
10889;DHT22;5497;51.388;6.780;2023-01-08T08:20:40;8.70;99.90
10889;DHT22;5497;51.388;6.780;2023-01-08T08:23:08;8.60;99.90
10889;DHT22;5497;51.388;6.780;2023-01-08T08:25:37;8.50;99.90
10889;DHT22;5497;51.388;6.780;2023-01-08T08:28:05;8.40;99.90
10889;DHT22;5497;51.388;6.780;2023-01-08T08:30:33;8.30;99.90
10889;DHT22;5497;51.388;6.780;2023-01-08T08:33:02;8.30;99.90
10889;DHT22;5497;51.388;6.780;2023-01-08T08:35:30;8.20;99.90
10889;DHT22;5497;51.388;6.780;2023-01-08T08:37:59;8.20;99.90
10889;DHT22;5497;51.388;6.780;2023-01-08T08:40:26;8.10;99.90
10889;DHT22;5497;51.388;6.780;2023-01-08T08:42:55;8.10;99.90
10889;DHT22;5497;51.388;6.780;2023-01-08T08:45:22;8.10;99.90
10889;DHT22;5497;51.388;6.780;2023-01-08T08:47:49;8.10;99.90
10889;DHT22;5497;51.388;6.780;2023-01-08T08:50:16;8.00;99.90
10889;DHT22;5497;51.388;6.780;2023-01-08T08:52:44;8.00;99.90
10889;DHT22;5497;51.388;6.780;2023-01-08T08:55:12;8.10;99.90
10889;DHT22;5497;51.388;6.780;2023-01-08T08:57:43;8.20;99.90
10889;DHT22;5497;51.388;6.780;2023-01-08T09:00:11;8.20;99.90
10889;DHT22;5497;51.388;6.780;2023-01-08T09:02:38;8.30;99.90
10889;DHT22;5497;51.388;6.780;2023-01-08T09:05:06;8.40;99.90
10889;DHT22;5497;51.388;6.780;2023-01-08T09:07:33;8.40;99.90
10889;DHT22;5497;51.388;6.780;2023-01-08T09:10:00;9.10;99.90
10889;DHT22;5497;51.388;6.780;2023-01-08T09:12:29;8.60;99.90
10889;DHT22;5497;51.388;6.780;2023-01-08T09:14:56;8.70;99.90
10889;DHT22;5497;51.388;6.780;2023-01-08T09:17:23;8.90;99.90
10889;DHT22;5497;51.388;6.780;2023-01-08T09:19:51;9.00;99.90
10889;DHT22;5497;51.388;6.780;2023-01-08T09:22:18;9.10;99.90
10889;DHT22;5497;51.388;6.780;2023-01-08T09:24:45;9.20;99.90
10889;DHT22;5497;51.388;6.780;2023-01-08T09:27:12;9.30;99.90
10889;DHT22;5497;51.388;6.780;2023-01-08T09:29:41;9.40;99.90
10889;DHT22;5497;51.388;6.780;2023-01-08T09:32:08;9.60;99.90
10889;DHT22;5497;51.388;6.780;2023-01-08T09:34:35;9.70;99.90
10889;DHT22;5497;51.388;6.780;2023-01-08T09:37:03;9.80;99.90
10889;DHT22;5497;51.388;6.780;2023-01-08T09:39:31;9.90;99.90
10889;DHT22;5497;51.388;6.780;2023-01-08T09:42:00;10.10;99.90
10889;DHT22;5497;51.388;6.780;2023-01-08T09:44:32;10.20;99.90
10889;DHT22;5497;51.388;6.780;2023-01-08T09:47:03;10.30;99.90
10889;DHT22;5497;51.388;6.780;2023-01-08T09:49:36;10.40;99.90
10889;DHT22;5497;51.388;6.780;2023-01-08T09:52:09;10.40;99.90
10889;DHT22;5497;51.388;6.780;2023-01-08T09:54:37;10.50;99.90
10889;DHT22;5497;51.388;6.780;2023-01-08T09:57:04;10.50;99.90
10889;DHT22;5497;51.388;6.780;2023-01-08T09:59:31;10.50;99.90
10889;DHT22;5497;51.388;6.780;2023-01-08T10:01:58;10.50;99.90
10889;DHT22;5497;51.388;6.780;2023-01-08T10:04:29;10.60;99.90
10889;DHT22;5497;51.388;6.780;2023-01-08T10:06:59;10.90;99.90
10889;DHT22;5497;51.388;6.780;2023-01-08T10:09:29;11.20;99.90
10889;DHT22;5497;51.388;6.780;2023-01-08T10:12:00;11.50;99.90
10889;DHT22;5497;51.388;6.780;2023-01-08T10:14:30;11.70;99.90
10889;DHT22;5497;51.388;6.780;2023-01-08T10:17:00;11.90;99.90
10889;DHT22;5497;51.388;6.780;2023-01-08T10:19:29;12.10;99.90
10889;DHT22;5497;51.388;6.780;2023-01-08T10:21:57;12.20;99.90
10889;DHT22;5497;51.388;6.780;2023-01-08T10:24:34;12.30;99.90
10889;DHT22;5497;51.388;6.780;2023-01-08T10:27:05;12.40;99.90
10889;DHT22;5497;51.388;6.780;2023-01-08T10:29:34;12.30;99.90
10889;DHT22;5497;51.388;6.780;2023-01-08T10:32:07;12.40;99.90
10889;DHT22;5497;51.388;6.780;2023-01-08T10:34:43;12.40;99.90
10889;DHT22;5497;51.388;6.780;2023-01-08T10:37:19;12.60;99.90
10889;DHT22;5497;51.388;6.780;2023-01-08T10:39:48;12.60;99.90
10889;DHT22;5497;51.388;6.780;2023-01-08T10:42:17;12.50;99.90
10889;DHT22;5497;51.388;6.780;2023-01-08T10:44:56;12.40;99.90
10889;DHT22;5497;51.388;6.780;2023-01-08T10:47:27;12.30;99.90
10889;DHT22;5497;51.388;6.780;2023-01-08T10:49:58;12.30;99.90
10889;DHT22;5497;51.388;6.780;2023-01-08T10:52:28;12.50;99.90
10889;DHT22;5497;51.388;6.780;2023-01-08T10:54:58;12.70;99.90
10889;DHT22;5497;51.388;6.780;2023-01-08T10:57:38;12.90;99.90
10889;DHT22;5497;51.388;6.780;2023-01-08T11:00:22;13.20;99.90
10889;DHT22;5497;51.388;6.780;2023-01-08T11:02:49;13.30;99.90
10889;DHT22;5497;51.388;6.780;2023-01-08T11:05:17;13.30;99.90
10889;DHT22;5497;51.388;6.780;2023-01-08T11:07:48;13.30;99.90
10889;DHT22;5497;51.388;6.780;2023-01-08T11:10:22;13.30;99.90
10889;DHT22;5497;51.388;6.780;2023-01-08T11:12:54;13.30;99.90
10889;DHT22;5497;51.388;6.780;2023-01-08T11:15:33;13.30;99.90
10889;DHT22;5497;51.388;6.780;2023-01-08T11:18:14;13.30;99.90
10889;DHT22;5497;51.388;6.780;2023-01-08T11:20:44;13.20;99.90
10889;DHT22;5497;51.388;6.780;2023-01-08T11:23:15;13.10;99.90
10889;DHT22;5497;51.388;6.780;2023-01-08T11:25:46;13.30;99.90
10889;DHT22;5497;51.388;6.780;2023-01-08T11:28:18;12.90;99.90
10889;DHT22;5497;51.388;6.780;2023-01-08T11:30:52;12.80;99.90
10889;DHT22;5497;51.388;6.780;2023-01-08T11:33:21;12.70;99.90
10889;DHT22;5497;51.388;6.780;2023-01-08T11:35:57;12.70;99.90
10889;DHT22;5497;51.388;6.780;2023-01-08T11:38:26;12.60;99.90
10889;DHT22;5497;51.388;6.780;2023-01-08T11:40:58;12.60;99.90
10889;DHT22;5497;51.388;6.780;2023-01-08T11:43:35;12.60;99.90
10889;DHT22;5497;51.388;6.780;2023-01-08T11:46:15;12.70;99.90
10889;DHT22;5497;51.388;6.780;2023-01-08T11:49:15;12.60;99.90
10889;DHT22;5497;51.388;6.780;2023-01-08T11:52:00;12.50;99.90
10889;DHT22;5497;51.388;6.780;2023-01-08T11:54:42;12.40;99.90
10889;DHT22;5497;51.388;6.780;2023-01-08T11:57:23;12.30;99.90
10889;DHT22;5497;51.388;6.780;2023-01-08T12:00:08;12.30;99.90
10889;DHT22;5497;51.388;6.780;2023-01-08T12:02:50;12.20;99.90
10889;DHT22;5497;51.388;6.780;2023-01-08T12:05:29;12.10;99.90
10889;DHT22;5497;51.388;6.780;2023-01-08T12:08:05;12.10;99.90
10889;DHT22;5497;51.388;6.780;2023-01-08T12:10:41;12.00;99.90
10889;DHT22;5497;51.388;6.780;2023-01-08T12:13:23;11.40;99.90
10889;DHT22;5497;51.388;6.780;2023-01-08T12:16:04;10.90;99.90
10889;DHT22;5497;51.388;6.780;2023-01-08T12:18:51;10.50;99.90
10889;DHT22;5497;51.388;6.780;2023-01-08T12:21:27;10.20;99.90
10889;DHT22;5497;51.388;6.780;2023-01-08T12:24:10;10.20;99.90
10889;DHT22;5497;51.388;6.780;2023-01-08T12:26:44;10.20;99.90
10889;DHT22;5497;51.388;6.780;2023-01-08T12:29:26;10.30;99.90
10889;DHT22;5497;51.388;6.780;2023-01-08T12:32:16;10.40;99.90
10889;DHT22;5497;51.388;6.780;2023-01-08T12:34:50;10.40;99.90
10889;DHT22;5497;51.388;6.780;2023-01-08T12:37:23;10.50;99.90
10889;DHT22;5497;51.388;6.780;2023-01-08T12:42:39;11.20;99.90
10889;DHT22;5497;51.388;6.780;2023-01-08T12:45:14;11.50;99.90
10889;DHT22;5497;51.388;6.780;2023-01-08T12:47:42;11.60;99.90
10889;DHT22;5497;51.388;6.780;2023-01-08T12:50:23;11.70;99.90
10889;DHT22;5497;51.388;6.780;2023-01-08T12:52:57;11.80;99.90
10889;DHT22;5497;51.388;6.780;2023-01-08T12:55:38;11.80;99.90
10889;DHT22;5497;51.388;6.780;2023-01-08T12:58:22;11.80;99.90
10889;DHT22;5497;51.388;6.780;2023-01-08T13:00:56;11.80;99.90
10889;DHT22;5497;51.388;6.780;2023-01-08T13:03:27;11.90;99.90
10889;DHT22;5497;51.388;6.780;2023-01-08T13:06:08;12.00;99.90
10889;DHT22;5497;51.388;6.780;2023-01-08T13:08:38;12.10;99.90
10889;DHT22;5497;51.388;6.780;2023-01-08T13:11:06;12.20;99.90
10889;DHT22;5497;51.388;6.780;2023-01-08T13:13:37;12.20;99.90
10889;DHT22;5497;51.388;6.780;2023-01-08T13:16:08;12.30;99.90
10889;DHT22;5497;51.388;6.780;2023-01-08T13:18:50;12.30;99.90
10889;DHT22;5497;51.388;6.780;2023-01-08T13:21:27;12.50;99.90
10889;DHT22;5497;51.388;6.780;2023-01-08T13:23:59;12.50;99.90
10889;DHT22;5497;51.388;6.780;2023-01-08T13:26:28;12.60;99.90
10889;DHT22;5497;51.388;6.780;2023-01-08T13:29:20;12.60;99.90
10889;DHT22;5497;51.388;6.780;2023-01-08T13:31:47;12.70;99.90
10889;DHT22;5497;51.388;6.780;2023-01-08T13:34:20;12.70;99.90
10889;DHT22;5497;51.388;6.780;2023-01-08T13:36:57;12.80;99.90
10889;DHT22;5497;51.388;6.780;2023-01-08T13:39:32;12.80;99.90
10889;DHT22;5497;51.388;6.780;2023-01-08T13:42:20;12.80;99.90
10889;DHT22;5497;51.388;6.780;2023-01-08T13:44:50;12.80;99.90
10889;DHT22;5497;51.388;6.780;2023-01-08T13:47:24;12.70;99.90
10889;DHT22;5497;51.388;6.780;2023-01-08T13:49:54;12.70;99.90
10889;DHT22;5497;51.388;6.780;2023-01-08T13:52:39;12.70;99.90
10889;DHT22;5497;51.388;6.780;2023-01-08T13:55:14;12.50;99.90
10889;DHT22;5497;51.388;6.780;2023-01-08T13:57:44;12.20;99.90
10889;DHT22;5497;51.388;6.780;2023-01-08T14:00:22;12.00;99.90
10889;DHT22;5497;51.388;6.780;2023-01-08T14:02:50;11.90;99.90
10889;DHT22;5497;51.388;6.780;2023-01-08T14:05:24;11.90;99.90
10889;DHT22;5497;51.388;6.780;2023-01-08T14:07:52;11.90;99.90
10889;DHT22;5497;51.388;6.780;2023-01-08T14:10:19;11.90;99.90
10889;DHT22;5497;51.388;6.780;2023-01-08T14:12:47;11.90;99.90
10889;DHT22;5497;51.388;6.780;2023-01-08T14:15:25;11.90;99.90
10889;DHT22;5497;51.388;6.780;2023-01-08T14:17:53;11.90;99.90
10889;DHT22;5497;51.388;6.780;2023-01-08T14:20:29;11.80;99.90
10889;DHT22;5497;51.388;6.780;2023-01-08T14:22:58;12.00;99.90
10889;DHT22;5497;51.388;6.780;2023-01-08T14:25:26;12.00;99.90
10889;DHT22;5497;51.388;6.780;2023-01-08T14:27:58;12.00;99.90
10889;DHT22;5497;51.388;6.780;2023-01-08T14:30:27;12.10;99.90
10889;DHT22;5497;51.388;6.780;2023-01-08T14:32:56;12.10;99.90
10889;DHT22;5497;51.388;6.780;2023-01-08T14:35:29;12.00;99.90
10889;DHT22;5497;51.388;6.780;2023-01-08T14:37:58;12.00;99.90
10889;DHT22;5497;51.388;6.780;2023-01-08T14:40:31;11.90;99.90
10889;DHT22;5497;51.388;6.780;2023-01-08T14:43:02;11.80;99.90
10889;DHT22;5497;51.388;6.780;2023-01-08T14:45:33;11.60;99.90
10889;DHT22;5497;51.388;6.780;2023-01-08T14:48:08;11.40;99.90
10889;DHT22;5497;51.388;6.780;2023-01-08T14:50:37;11.30;99.90
10889;DHT22;5497;51.388;6.780;2023-01-08T14:53:06;11.10;99.90
10889;DHT22;5497;51.388;6.780;2023-01-08T14:55:35;11.00;99.90
10889;DHT22;5497;51.388;6.780;2023-01-08T14:58:13;10.90;99.90
10889;DHT22;5497;51.388;6.780;2023-01-08T15:00:51;10.70;99.90
10889;DHT22;5497;51.388;6.780;2023-01-08T15:03:28;10.60;99.90
10889;DHT22;5497;51.388;6.780;2023-01-08T15:05:56;10.50;99.90
10889;DHT22;5497;51.388;6.780;2023-01-08T15:08:25;10.40;99.90
10889;DHT22;5497;51.388;6.780;2023-01-08T15:10:59;10.30;99.90
10889;DHT22;5497;51.388;6.780;2023-01-08T15:13:32;10.20;99.90
10889;DHT22;5497;51.388;6.780;2023-01-08T15:16:06;10.20;99.90
10889;DHT22;5497;51.388;6.780;2023-01-08T15:18:39;10.20;99.90
10889;DHT22;5497;51.388;6.780;2023-01-08T15:21:07;10.30;99.90
10889;DHT22;5497;51.388;6.780;2023-01-08T15:23:38;10.20;99.90
10889;DHT22;5497;51.388;6.780;2023-01-08T15:26:09;10.20;99.90
10889;DHT22;5497;51.388;6.780;2023-01-08T15:28:37;10.10;99.90
10889;DHT22;5497;51.388;6.780;2023-01-08T15:31:10;10.10;99.90
10889;DHT22;5497;51.388;6.780;2023-01-08T15:33:48;10.00;99.90
10889;DHT22;5497;51.388;6.780;2023-01-08T15:36:15;9.90;99.90
10889;DHT22;5497;51.388;6.780;2023-01-08T15:38:42;9.80;99.90
10889;DHT22;5497;51.388;6.780;2023-01-08T15:41:09;9.70;99.90
10889;DHT22;5497;51.388;6.780;2023-01-08T15:43:36;9.70;99.90
10889;DHT22;5497;51.388;6.780;2023-01-08T15:46:02;9.60;99.90
10889;DHT22;5497;51.388;6.780;2023-01-08T15:48:31;9.60;99.90
10889;DHT22;5497;51.388;6.780;2023-01-08T15:50:57;9.50;99.90
10889;DHT22;5497;51.388;6.780;2023-01-08T15:53:25;9.40;99.90
10889;DHT22;5497;51.388;6.780;2023-01-08T15:55:52;9.40;99.90
10889;DHT22;5497;51.388;6.780;2023-01-08T15:58:19;9.40;99.90
10889;DHT22;5497;51.388;6.780;2023-01-08T16:00:46;9.50;99.90
10889;DHT22;5497;51.388;6.780;2023-01-08T16:03:13;9.60;99.90
10889;DHT22;5497;51.388;6.780;2023-01-08T16:05:42;9.60;99.90
10889;DHT22;5497;51.388;6.780;2023-01-08T16:08:09;9.70;99.90
10889;DHT22;5497;51.388;6.780;2023-01-08T16:10:37;9.80;99.90
10889;DHT22;5497;51.388;6.780;2023-01-08T16:13:03;9.80;99.90
10889;DHT22;5497;51.388;6.780;2023-01-08T16:15:30;9.90;99.90